sensor_id;sensor_type;location;lat;lon;timestamp;P1;durP1;ratioP1;P2;durP2;ratioP2
31087;SDS011;17745;55.914;37.554;2023-05-10T00:02:11;14.48;;;6.12;;
31087;SDS011;17745;55.914;37.554;2023-05-10T00:04:48;17.95;;;6.30;;
31087;SDS011;17745;55.914;37.554;2023-05-10T00:07:24;13.13;;;5.50;;
31087;SDS011;17745;55.914;37.554;2023-05-10T00:09:56;18.02;;;6.25;;
31087;SDS011;17745;55.914;37.554;2023-05-10T00:12:26;23.10;;;9.32;;
31087;SDS011;17745;55.914;37.554;2023-05-10T00:14:57;18.95;;;8.15;;
31087;SDS011;17745;55.914;37.554;2023-05-10T00:17:33;17.15;;;6.93;;
31087;SDS011;17745;55.914;37.554;2023-05-10T00:20:14;17.65;;;7.65;;
31087;SDS011;17745;55.914;37.554;2023-05-10T00:22:51;19.85;;;8.52;;
31087;SDS011;17745;55.914;37.554;2023-05-10T00:25:26;16.77;;;5.93;;
31087;SDS011;17745;55.914;37.554;2023-05-10T00:27:57;17.30;;;6.70;;
31087;SDS011;17745;55.914;37.554;2023-05-10T00:30:30;16.02;;;7.65;;
31087;SDS011;17745;55.914;37.554;2023-05-10T00:33:04;14.07;;;6.30;;
31087;SDS011;17745;55.914;37.554;2023-05-10T00:35:40;12.00;;;5.25;;
31087;SDS011;17745;55.914;37.554;2023-05-10T00:38:14;13.68;;;5.68;;
31087;SDS011;17745;55.914;37.554;2023-05-10T00:40:45;21.70;;;8.15;;
31087;SDS011;17745;55.914;37.554;2023-05-10T00:43:22;21.17;;;7.45;;
31087;SDS011;17745;55.914;37.554;2023-05-10T00:45:55;18.85;;;6.90;;
31087;SDS011;17745;55.914;37.554;2023-05-10T00:48:24;18.48;;;6.45;;
31087;SDS011;17745;55.914;37.554;2023-05-10T00:53:39;22.80;;;6.75;;
31087;SDS011;17745;55.914;37.554;2023-05-10T00:56:15;14.50;;;5.53;;
31087;SDS011;17745;55.914;37.554;2023-05-10T00:58:45;10.45;;;5.60;;
31087;SDS011;17745;55.914;37.554;2023-05-10T01:01:23;14.10;;;5.10;;
31087;SDS011;17745;55.914;37.554;2023-05-10T01:03:54;11.02;;;5.68;;
31087;SDS011;17745;55.914;37.554;2023-05-10T01:06:33;12.02;;;6.03;;
31087;SDS011;17745;55.914;37.554;2023-05-10T01:09:07;10.13;;;5.43;;
31087;SDS011;17745;55.914;37.554;2023-05-10T01:11:55;10.18;;;5.12;;
31087;SDS011;17745;55.914;37.554;2023-05-10T01:14:32;15.77;;;6.07;;
31087;SDS011;17745;55.914;37.554;2023-05-10T01:19:44;16.50;;;5.55;;
31087;SDS011;17745;55.914;37.554;2023-05-10T01:22:19;11.30;;;5.97;;
31087;SDS011;17745;55.914;37.554;2023-05-10T01:34:54;11.63;;;5.45;;
31087;SDS011;17745;55.914;37.554;2023-05-10T01:37:45;14.20;;;5.43;;
31087;SDS011;17745;55.914;37.554;2023-05-10T01:40:35;12.82;;;4.72;;
31087;SDS011;17745;55.914;37.554;2023-05-10T01:43:21;7.37;;;4.72;;
31087;SDS011;17745;55.914;37.554;2023-05-10T01:46:03;10.63;;;4.87;;
31087;SDS011;17745;55.914;37.554;2023-05-10T01:49:07;8.18;;;4.62;;
31087;SDS011;17745;55.914;37.554;2023-05-10T01:52:18;10.63;;;5.03;;
31087;SDS011;17745;55.914;37.554;2023-05-10T01:55:04;9.50;;;4.57;;
31087;SDS011;17745;55.914;37.554;2023-05-10T01:57:39;10.20;;;4.90;;
31087;SDS011;17745;55.914;37.554;2023-05-10T02:00:29;12.32;;;4.95;;
31087;SDS011;17745;55.914;37.554;2023-05-10T02:03:07;11.93;;;5.65;;
31087;SDS011;17745;55.914;37.554;2023-05-10T02:06:03;11.70;;;5.87;;
31087;SDS011;17745;55.914;37.554;2023-05-10T02:08:42;8.38;;;5.37;;
31087;SDS011;17745;55.914;37.554;2023-05-10T02:12:07;13.73;;;7.37;;
31087;SDS011;17745;55.914;37.554;2023-05-10T02:14:59;13.13;;;6.37;;
31087;SDS011;17745;55.914;37.554;2023-05-10T02:17:45;12.02;;;5.70;;
31087;SDS011;17745;55.914;37.554;2023-05-10T02:20:46;18.80;;;6.45;;
31087;SDS011;17745;55.914;37.554;2023-05-10T02:23:54;10.60;;;5.25;;
31087;SDS011;17745;55.914;37.554;2023-05-10T02:26:34;8.65;;;4.87;;
31087;SDS011;17745;55.914;37.554;2023-05-10T02:29:28;14.10;;;4.65;;
31087;SDS011;17745;55.914;37.554;2023-05-10T02:32:13;8.82;;;5.32;;
31087;SDS011;17745;55.914;37.554;2023-05-10T02:34:52;13.25;;;5.80;;
31087;SDS011;17745;55.914;37.554;2023-05-10T02:37:48;12.82;;;5.65;;
31087;SDS011;17745;55.914;37.554;2023-05-10T02:44:12;15.90;;;5.70;;
31087;SDS011;17745;55.914;37.554;2023-05-10T02:47:04;23.92;;;5.20;;
31087;SDS011;17745;55.914;37.554;2023-05-10T02:49:44;9.00;;;4.60;;
31087;SDS011;17745;55.914;37.554;2023-05-10T02:52:44;11.18;;;5.12;;
31087;SDS011;17745;55.914;37.554;2023-05-10T03:12:59;11.60;;;5.05;;
31087;SDS011;17745;55.914;37.554;2023-05-10T03:16:02;17.05;;;5.28;;
31087;SDS011;17745;55.914;37.554;2023-05-10T03:18:54;17.02;;;5.45;;
31087;SDS011;17745;55.914;37.554;2023-05-10T03:21:58;16.85;;;5.40;;
31087;SDS011;17745;55.914;37.554;2023-05-10T03:24:45;22.37;;;6.30;;
31087;SDS011;17745;55.914;37.554;2023-05-10T03:28:02;43.22;;;10.55;;
31087;SDS011;17745;55.914;37.554;2023-05-10T03:31:12;56.33;;;13.65;;
31087;SDS011;17745;55.914;37.554;2023-05-10T03:33:53;36.30;;;10.13;;
31087;SDS011;17745;55.914;37.554;2023-05-10T03:36:55;40.00;;;11.18;;
31087;SDS011;17745;55.914;37.554;2023-05-10T03:39:35;28.80;;;7.43;;
31087;SDS011;17745;55.914;37.554;2023-05-10T03:42:14;42.03;;;9.70;;
31087;SDS011;17745;55.914;37.554;2023-05-10T03:48:17;51.08;;;9.93;;
31087;SDS011;17745;55.914;37.554;2023-05-10T03:50:56;53.03;;;12.80;;
31087;SDS011;17745;55.914;37.554;2023-05-10T03:53:31;56.65;;;11.15;;
31087;SDS011;17745;55.914;37.554;2023-05-10T03:56:15;50.58;;;9.88;;
31087;SDS011;17745;55.914;37.554;2023-05-10T03:58:53;34.70;;;7.72;;
31087;SDS011;17745;55.914;37.554;2023-05-10T04:01:25;35.85;;;8.85;;
31087;SDS011;17745;55.914;37.554;2023-05-10T04:04:24;39.53;;;8.73;;
31087;SDS011;17745;55.914;37.554;2023-05-10T04:07:15;14.87;;;6.05;;
31087;SDS011;17745;55.914;37.554;2023-05-10T04:10:03;22.90;;;7.00;;
31087;SDS011;17745;55.914;37.554;2023-05-10T04:16:12;21.95;;;6.12;;
31087;SDS011;17745;55.914;37.554;2023-05-10T04:18:51;18.70;;;6.35;;
31087;SDS011;17745;55.914;37.554;2023-05-10T04:25:56;26.60;;;5.82;;
31087;SDS011;17745;55.914;37.554;2023-05-10T04:29:52;17.92;;;5.80;;
31087;SDS011;17745;55.914;37.554;2023-05-10T04:33:13;12.37;;;5.25;;
31087;SDS011;17745;55.914;37.554;2023-05-10T04:36:32;21.23;;;4.70;;
31087;SDS011;17745;55.914;37.554;2023-05-10T04:39:45;14.82;;;4.62;;
31087;SDS011;17745;55.914;37.554;2023-05-10T05:23:19;7.47;;;3.00;;
31087;SDS011;17745;55.914;37.554;2023-05-10T05:26:01;8.65;;;3.10;;
31087;SDS011;17745;55.914;37.554;2023-05-10T05:28:48;6.40;;;3.23;;
31087;SDS011;17745;55.914;37.554;2023-05-10T05:31:26;9.65;;;3.67;;
31087;SDS011;17745;55.914;37.554;2023-05-10T05:34:14;9.10;;;2.95;;
31087;SDS011;17745;55.914;37.554;2023-05-10T05:36:53;10.50;;;3.45;;
31087;SDS011;17745;55.914;37.554;2023-05-10T05:40:00;10.98;;;3.62;;
31087;SDS011;17745;55.914;37.554;2023-05-10T05:42:33;9.55;;;3.30;;
31087;SDS011;17745;55.914;37.554;2023-05-10T05:45:10;6.65;;;3.12;;
31087;SDS011;17745;55.914;37.554;2023-05-10T05:47:56;7.20;;;3.42;;
31087;SDS011;17745;55.914;37.554;2023-05-10T05:53:55;8.18;;;3.67;;
31087;SDS011;17745;55.914;37.554;2023-05-10T05:56:53;9.68;;;3.75;;
31087;SDS011;17745;55.914;37.554;2023-05-10T05:59:28;12.07;;;3.55;;
31087;SDS011;17745;55.914;37.554;2023-05-10T06:01:59;10.23;;;3.97;;
31087;SDS011;17745;55.914;37.554;2023-05-10T06:04:34;7.12;;;3.45;;
31087;SDS011;17745;55.914;37.554;2023-05-10T06:07:10;14.80;;;4.37;;
31087;SDS011;17745;55.914;37.554;2023-05-10T06:12:52;14.27;;;4.72;;
31087;SDS011;17745;55.914;37.554;2023-05-10T06:15:41;14.77;;;4.30;;
31087;SDS011;17745;55.914;37.554;2023-05-10T06:18:32;19.33;;;4.00;;
31087;SDS011;17745;55.914;37.554;2023-05-10T06:21:07;7.95;;;4.00;;
31087;SDS011;17745;55.914;37.554;2023-05-10T06:23:39;18.40;;;4.10;;
31087;SDS011;17745;55.914;37.554;2023-05-10T06:26:14;7.85;;;3.60;;
31087;SDS011;17745;55.914;37.554;2023-05-10T06:28:52;9.50;;;3.70;;
31087;SDS011;17745;55.914;37.554;2023-05-10T06:31:30;16.00;;;4.37;;
31087;SDS011;17745;55.914;37.554;2023-05-10T06:34:01;14.73;;;3.80;;
31087;SDS011;17745;55.914;37.554;2023-05-10T06:36:33;7.25;;;3.03;;
31087;SDS011;17745;55.914;37.554;2023-05-10T06:39:06;6.97;;;3.50;;
31087;SDS011;17745;55.914;37.554;2023-05-10T06:41:57;13.00;;;3.47;;
31087;SDS011;17745;55.914;37.554;2023-05-10T06:44:34;7.43;;;3.30;;
31087;SDS011;17745;55.914;37.554;2023-05-10T06:47:05;10.32;;;4.50;;
31087;SDS011;17745;55.914;37.554;2023-05-10T06:49:38;6.90;;;2.75;;
31087;SDS011;17745;55.914;37.554;2023-05-10T06:52:11;8.30;;;3.28;;
31087;SDS011;17745;55.914;37.554;2023-05-10T06:54:47;14.18;;;3.75;;
31087;SDS011;17745;55.914;37.554;2023-05-10T06:57:16;12.40;;;3.30;;
31087;SDS011;17745;55.914;37.554;2023-05-10T06:59:51;10.00;;;3.12;;
31087;SDS011;17745;55.914;37.554;2023-05-10T07:02:25;6.32;;;2.65;;
31087;SDS011;17745;55.914;37.554;2023-05-10T07:05:00;12.82;;;3.37;;
31087;SDS011;17745;55.914;37.554;2023-05-10T07:07:35;8.52;;;3.40;;
31087;SDS011;17745;55.914;37.554;2023-05-10T07:10:10;8.35;;;4.05;;
31087;SDS011;17745;55.914;37.554;2023-05-10T07:12:41;9.70;;;3.78;;
31087;SDS011;17745;55.914;37.554;2023-05-10T07:15:21;11.00;;;3.67;;
31087;SDS011;17745;55.914;37.554;2023-05-10T07:17:50;7.90;;;2.72;;
31087;SDS011;17745;55.914;37.554;2023-05-10T07:20:27;15.32;;;3.72;;
31087;SDS011;17745;55.914;37.554;2023-05-10T07:22:57;10.93;;;3.20;;
31087;SDS011;17745;55.914;37.554;2023-05-10T07:25:57;6.30;;;3.28;;
31087;SDS011;17745;55.914;37.554;2023-05-10T07:32:46;9.20;;;3.33;;
31087;SDS011;17745;55.914;37.554;2023-05-10T07:35:16;14.60;;;3.45;;
31087;SDS011;17745;55.914;37.554;2023-05-10T07:37:51;9.48;;;3.25;;
31087;SDS011;17745;55.914;37.554;2023-05-10T07:40:22;20.60;;;3.15;;
31087;SDS011;17745;55.914;37.554;2023-05-10T07:43:01;11.27;;;3.35;;
31087;SDS011;17745;55.914;37.554;2023-05-10T07:52:39;13.35;;;3.00;;
31087;SDS011;17745;55.914;37.554;2023-05-10T07:55:20;11.98;;;3.37;;
31087;SDS011;17745;55.914;37.554;2023-05-10T07:57:53;13.80;;;2.90;;
31087;SDS011;17745;55.914;37.554;2023-05-10T08:00:35;11.55;;;3.42;;
31087;SDS011;17745;55.914;37.554;2023-05-10T08:03:30;6.90;;;2.87;;
31087;SDS011;17745;55.914;37.554;2023-05-10T08:06:13;10.30;;;2.97;;
31087;SDS011;17745;55.914;37.554;2023-05-10T08:08:51;6.95;;;2.87;;
31087;SDS011;17745;55.914;37.554;2023-05-10T08:11:27;7.05;;;2.40;;
31087;SDS011;17745;55.914;37.554;2023-05-10T08:14:13;10.20;;;2.42;;
31087;SDS011;17745;55.914;37.554;2023-05-10T08:16:45;6.18;;;2.42;;
31087;SDS011;17745;55.914;37.554;2023-05-10T08:19:14;5.43;;;2.60;;
31087;SDS011;17745;55.914;37.554;2023-05-10T08:21:46;7.20;;;2.65;;
31087;SDS011;17745;55.914;37.554;2023-05-10T08:24:25;7.07;;;2.53;;
31087;SDS011;17745;55.914;37.554;2023-05-10T08:27:16;6.75;;;2.40;;
31087;SDS011;17745;55.914;37.554;2023-05-10T08:29:44;9.25;;;2.50;;
31087;SDS011;17745;55.914;37.554;2023-05-10T08:32:17;6.00;;;2.85;;
31087;SDS011;17745;55.914;37.554;2023-05-10T08:34:54;9.77;;;2.55;;
31087;SDS011;17745;55.914;37.554;2023-05-10T08:37:31;11.12;;;2.58;;
31087;SDS011;17745;55.914;37.554;2023-05-10T08:40:30;4.93;;;2.00;;
31087;SDS011;17745;55.914;37.554;2023-05-10T08:43:07;7.07;;;2.15;;
31087;SDS011;17745;55.914;37.554;2023-05-10T08:45:40;6.62;;;2.22;;
31087;SDS011;17745;55.914;37.554;2023-05-10T08:48:15;4.03;;;1.35;;
31087;SDS011;17745;55.914;37.554;2023-05-10T08:50:58;6.53;;;2.15;;
31087;SDS011;17745;55.914;37.554;2023-05-10T08:53:32;3.37;;;1.75;;
31087;SDS011;17745;55.914;37.554;2023-05-10T08:56:07;3.15;;;1.90;;
31087;SDS011;17745;55.914;37.554;2023-05-10T08:58:41;8.70;;;2.70;;
31087;SDS011;17745;55.914;37.554;2023-05-10T09:01:10;7.40;;;2.30;;
31087;SDS011;17745;55.914;37.554;2023-05-10T09:03:42;3.83;;;1.85;;
31087;SDS011;17745;55.914;37.554;2023-05-10T09:06:16;4.18;;;1.92;;
31087;SDS011;17745;55.914;37.554;2023-05-10T09:09:00;8.20;;;2.70;;
31087;SDS011;17745;55.914;37.554;2023-05-10T09:11:37;8.15;;;2.12;;
31087;SDS011;17745;55.914;37.554;2023-05-10T09:14:06;7.85;;;1.90;;
31087;SDS011;17745;55.914;37.554;2023-05-10T09:16:38;7.68;;;2.17;;
31087;SDS011;17745;55.914;37.554;2023-05-10T09:19:11;5.40;;;2.10;;
31087;SDS011;17745;55.914;37.554;2023-05-10T09:21:42;6.43;;;1.67;;
31087;SDS011;17745;55.914;37.554;2023-05-10T09:24:14;4.32;;;1.52;;
31087;SDS011;17745;55.914;37.554;2023-05-10T09:26:48;5.18;;;2.60;;
31087;SDS011;17745;55.914;37.554;2023-05-10T09:29:23;5.85;;;2.15;;
31087;SDS011;17745;55.914;37.554;2023-05-10T09:31:54;7.22;;;2.30;;
31087;SDS011;17745;55.914;37.554;2023-05-10T09:34:29;4.62;;;1.77;;
31087;SDS011;17745;55.914;37.554;2023-05-10T09:37:13;4.97;;;2.28;;
31087;SDS011;17745;55.914;37.554;2023-05-10T09:40:01;2.83;;;1.83;;
31087;SDS011;17745;55.914;37.554;2023-05-10T09:46:32;6.75;;;2.12;;
31087;SDS011;17745;55.914;37.554;2023-05-10T09:49:22;5.60;;;2.28;;
31087;SDS011;17745;55.914;37.554;2023-05-10T09:52:20;4.70;;;2.10;;
31087;SDS011;17745;55.914;37.554;2023-05-10T09:55:11;5.40;;;2.10;;
31087;SDS011;17745;55.914;37.554;2023-05-10T09:58:01;6.87;;;2.53;;
31087;SDS011;17745;55.914;37.554;2023-05-10T10:01:00;5.07;;;2.37;;
31087;SDS011;17745;55.914;37.554;2023-05-10T10:06:22;6.50;;;2.45;;
31087;SDS011;17745;55.914;37.554;2023-05-10T10:08:54;6.20;;;2.50;;
31087;SDS011;17745;55.914;37.554;2023-05-10T10:11:33;5.50;;;2.25;;
31087;SDS011;17745;55.914;37.554;2023-05-10T10:14:21;5.43;;;2.40;;
31087;SDS011;17745;55.914;37.554;2023-05-10T10:17:00;6.03;;;2.20;;
31087;SDS011;17745;55.914;37.554;2023-05-10T10:19:38;7.37;;;2.28;;
31087;SDS011;17745;55.914;37.554;2023-05-10T10:22:10;6.43;;;2.08;;
31087;SDS011;17745;55.914;37.554;2023-05-10T10:24:41;13.07;;;2.70;;
31087;SDS011;17745;55.914;37.554;2023-05-10T10:27:23;6.60;;;2.30;;
31087;SDS011;17745;55.914;37.554;2023-05-10T10:30:21;7.72;;;2.20;;
31087;SDS011;17745;55.914;37.554;2023-05-10T10:33:06;5.93;;;2.80;;
31087;SDS011;17745;55.914;37.554;2023-05-10T10:36:11;4.10;;;2.08;;
31087;SDS011;17745;55.914;37.554;2023-05-10T10:38:55;6.65;;;2.28;;
31087;SDS011;17745;55.914;37.554;2023-05-10T10:41:35;4.30;;;2.10;;
31087;SDS011;17745;55.914;37.554;2023-05-10T10:44:35;7.47;;;1.95;;
31087;SDS011;17745;55.914;37.554;2023-05-10T10:47:33;7.05;;;1.90;;
31087;SDS011;17745;55.914;37.554;2023-05-10T10:50:19;4.70;;;2.53;;
31087;SDS011;17745;55.914;37.554;2023-05-10T10:55:53;3.12;;;1.80;;
31087;SDS011;17745;55.914;37.554;2023-05-10T10:58:38;4.03;;;1.80;;
31087;SDS011;17745;55.914;37.554;2023-05-10T11:01:11;4.80;;;2.50;;
31087;SDS011;17745;55.914;37.554;2023-05-10T11:10:29;6.90;;;2.17;;
31087;SDS011;17745;55.914;37.554;2023-05-10T11:13:37;5.62;;;2.17;;
31087;SDS011;17745;55.914;37.554;2023-05-10T11:16:40;7.32;;;2.35;;
31087;SDS011;17745;55.914;37.554;2023-05-10T11:22:55;7.72;;;1.95;;
31087;SDS011;17745;55.914;37.554;2023-05-10T11:29:49;5.47;;;1.95;;
31087;SDS011;17745;55.914;37.554;2023-05-10T11:33:14;4.57;;;1.87;;
31087;SDS011;17745;55.914;37.554;2023-05-10T11:35:57;5.43;;;1.90;;
31087;SDS011;17745;55.914;37.554;2023-05-10T11:38:35;5.40;;;1.77;;
31087;SDS011;17745;55.914;37.554;2023-05-10T11:41:13;4.85;;;1.75;;
31087;SDS011;17745;55.914;37.554;2023-05-10T11:44:14;4.10;;;1.90;;
31087;SDS011;17745;55.914;37.554;2023-05-10T11:53:55;8.02;;;2.10;;
31087;SDS011;17745;55.914;37.554;2023-05-10T11:56:50;4.37;;;2.00;;
31087;SDS011;17745;55.914;37.554;2023-05-10T11:59:21;5.22;;;1.92;;
31087;SDS011;17745;55.914;37.554;2023-05-10T12:01:55;3.95;;;2.30;;
31087;SDS011;17745;55.914;37.554;2023-05-10T12:04:40;4.90;;;2.05;;
31087;SDS011;17745;55.914;37.554;2023-05-10T12:07:14;4.65;;;2.30;;
31087;SDS011;17745;55.914;37.554;2023-05-10T12:12:42;3.90;;;2.00;;
31087;SDS011;17745;55.914;37.554;2023-05-10T12:15:17;5.78;;;2.20;;
31087;SDS011;17745;55.914;37.554;2023-05-10T12:17:51;6.35;;;2.00;;
31087;SDS011;17745;55.914;37.554;2023-05-10T12:20:21;4.20;;;1.80;;
31087;SDS011;17745;55.914;37.554;2023-05-10T12:22:56;10.35;;;2.10;;
31087;SDS011;17745;55.914;37.554;2023-05-10T12:25:29;5.95;;;2.33;;
31087;SDS011;17745;55.914;37.554;2023-05-10T12:28:00;4.32;;;1.92;;
31087;SDS011;17745;55.914;37.554;2023-05-10T12:30:41;3.42;;;1.67;;
31087;SDS011;17745;55.914;37.554;2023-05-10T12:33:10;5.37;;;2.15;;
31087;SDS011;17745;55.914;37.554;2023-05-10T12:35:45;9.07;;;2.25;;
31087;SDS011;17745;55.914;37.554;2023-05-10T12:38:29;8.95;;;3.05;;
31087;SDS011;17745;55.914;37.554;2023-05-10T12:41:02;6.78;;;2.20;;
31087;SDS011;17745;55.914;37.554;2023-05-10T12:43:32;4.85;;;2.00;;
31087;SDS011;17745;55.914;37.554;2023-05-10T12:46:05;8.55;;;2.15;;
31087;SDS011;17745;55.914;37.554;2023-05-10T12:48:37;4.45;;;2.20;;
31087;SDS011;17745;55.914;37.554;2023-05-10T12:51:06;5.20;;;2.10;;
31087;SDS011;17745;55.914;37.554;2023-05-10T12:53:47;3.30;;;1.75;;
31087;SDS011;17745;55.914;37.554;2023-05-10T12:56:19;3.87;;;1.77;;
31087;SDS011;17745;55.914;37.554;2023-05-10T12:58:48;4.22;;;2.05;;
31087;SDS011;17745;55.914;37.554;2023-05-10T13:01:17;4.15;;;2.15;;
31087;SDS011;17745;55.914;37.554;2023-05-10T13:04:11;8.70;;;2.17;;
31087;SDS011;17745;55.914;37.554;2023-05-10T13:06:56;6.20;;;1.90;;
31087;SDS011;17745;55.914;37.554;2023-05-10T13:09:28;5.80;;;2.35;;
31087;SDS011;17745;55.914;37.554;2023-05-10T13:12:06;7.12;;;2.10;;
31087;SDS011;17745;55.914;37.554;2023-05-10T13:14:36;7.43;;;2.08;;
31087;SDS011;17745;55.914;37.554;2023-05-10T13:17:39;4.55;;;1.98;;
31087;SDS011;17745;55.914;37.554;2023-05-10T13:20:20;5.53;;;2.00;;
31087;SDS011;17745;55.914;37.554;2023-05-10T13:23:29;6.50;;;1.90;;
31087;SDS011;17745;55.914;37.554;2023-05-10T13:26:14;4.50;;;2.10;;
31087;SDS011;17745;55.914;37.554;2023-05-10T13:29:23;7.80;;;2.05;;
31087;SDS011;17745;55.914;37.554;2023-05-10T13:32:31;4.40;;;2.22;;
31087;SDS011;17745;55.914;37.554;2023-05-10T13:35:21;6.30;;;2.08;;
31087;SDS011;17745;55.914;37.554;2023-05-10T13:38:08;9.48;;;2.55;;
31087;SDS011;17745;55.914;37.554;2023-05-10T13:41:09;5.05;;;2.15;;
31087;SDS011;17745;55.914;37.554;2023-05-10T13:43:38;5.95;;;2.25;;
31087;SDS011;17745;55.914;37.554;2023-05-10T13:46:21;4.60;;;2.00;;
31087;SDS011;17745;55.914;37.554;2023-05-10T13:49:02;5.53;;;2.20;;
31087;SDS011;17745;55.914;37.554;2023-05-10T13:51:51;6.12;;;2.10;;
31087;SDS011;17745;55.914;37.554;2023-05-10T13:54:35;6.18;;;2.33;;
31087;SDS011;17745;55.914;37.554;2023-05-10T13:57:22;7.95;;;2.37;;
31087;SDS011;17745;55.914;37.554;2023-05-10T13:59:54;4.37;;;1.90;;
31087;SDS011;17745;55.914;37.554;2023-05-10T14:02:33;3.97;;;1.85;;
31087;SDS011;17745;55.914;37.554;2023-05-10T14:05:14;6.32;;;2.33;;
31087;SDS011;17745;55.914;37.554;2023-05-10T14:08:12;5.82;;;2.30;;
31087;SDS011;17745;55.914;37.554;2023-05-10T14:11:17;12.87;;;2.47;;
31087;SDS011;17745;55.914;37.554;2023-05-10T14:14:01;5.20;;;2.12;;
31087;SDS011;17745;55.914;37.554;2023-05-10T14:17:01;7.78;;;2.47;;
31087;SDS011;17745;55.914;37.554;2023-05-10T14:19:34;7.12;;;2.65;;
31087;SDS011;17745;55.914;37.554;2023-05-10T14:22:11;5.35;;;2.28;;
31087;SDS011;17745;55.914;37.554;2023-05-10T14:24:52;6.57;;;2.35;;
31087;SDS011;17745;55.914;37.554;2023-05-10T14:27:41;6.07;;;2.17;;
31087;SDS011;17745;55.914;37.554;2023-05-10T14:30:22;6.45;;;2.30;;
31087;SDS011;17745;55.914;37.554;2023-05-10T14:33:07;6.62;;;2.08;;
31087;SDS011;17745;55.914;37.554;2023-05-10T14:35:40;4.78;;;2.05;;
31087;SDS011;17745;55.914;37.554;2023-05-10T14:38:22;4.53;;;2.37;;
31087;SDS011;17745;55.914;37.554;2023-05-10T14:40:58;6.43;;;2.50;;
31087;SDS011;17745;55.914;37.554;2023-05-10T14:43:34;7.45;;;2.00;;
31087;SDS011;17745;55.914;37.554;2023-05-10T14:46:22;8.77;;;2.33;;
31087;SDS011;17745;55.914;37.554;2023-05-10T14:49:00;6.75;;;2.15;;
31087;SDS011;17745;55.914;37.554;2023-05-10T14:51:41;6.78;;;2.17;;
31087;SDS011;17745;55.914;37.554;2023-05-10T14:57:12;7.90;;;2.05;;
31087;SDS011;17745;55.914;37.554;2023-05-10T14:59:49;4.68;;;2.30;;
31087;SDS011;17745;55.914;37.554;2023-05-10T15:06:22;7.03;;;2.40;;
31087;SDS011;17745;55.914;37.554;2023-05-10T15:09:21;5.80;;;2.50;;
31087;SDS011;17745;55.914;37.554;2023-05-10T15:12:07;9.30;;;2.30;;
31087;SDS011;17745;55.914;37.554;2023-05-10T15:15:08;6.75;;;2.53;;
31087;SDS011;17745;55.914;37.554;2023-05-10T15:18:32;5.68;;;2.50;;
31087;SDS011;17745;55.914;37.554;2023-05-10T15:21:28;5.30;;;2.55;;
31087;SDS011;17745;55.914;37.554;2023-05-10T15:24:09;6.03;;;2.75;;
31087;SDS011;17745;55.914;37.554;2023-05-10T15:30:18;8.93;;;3.37;;
31087;SDS011;17745;55.914;37.554;2023-05-10T15:33:04;8.63;;;3.15;;
31087;SDS011;17745;55.914;37.554;2023-05-10T15:35:38;9.93;;;3.30;;
31087;SDS011;17745;55.914;37.554;2023-05-10T15:38:40;8.25;;;3.28;;
31087;SDS011;17745;55.914;37.554;2023-05-10T15:41:42;7.70;;;2.75;;
31087;SDS011;17745;55.914;37.554;2023-05-10T15:44:41;6.95;;;2.53;;
31087;SDS011;17745;55.914;37.554;2023-05-10T15:48:10;11.43;;;3.30;;
31087;SDS011;17745;55.914;37.554;2023-05-10T15:50:52;9.00;;;3.72;;
31087;SDS011;17745;55.914;37.554;2023-05-10T15:54:00;9.60;;;4.00;;
31087;SDS011;17745;55.914;37.554;2023-05-10T15:56:51;7.10;;;2.97;;
31087;SDS011;17745;55.914;37.554;2023-05-10T15:59:26;9.23;;;3.10;;
31087;SDS011;17745;55.914;37.554;2023-05-10T16:01:56;7.37;;;3.53;;
31087;SDS011;17745;55.914;37.554;2023-05-10T16:05:28;16.15;;;4.25;;
31087;SDS011;17745;55.914;37.554;2023-05-10T16:08:20;7.55;;;3.47;;
31087;SDS011;17745;55.914;37.554;2023-05-10T16:17:26;6.95;;;3.40;;
31087;SDS011;17745;55.914;37.554;2023-05-10T16:20:11;13.13;;;3.40;;
31087;SDS011;17745;55.914;37.554;2023-05-10T16:22:45;9.68;;;2.95;;
31087;SDS011;17745;55.914;37.554;2023-05-10T16:25:28;7.62;;;3.22;;
31087;SDS011;17745;55.914;37.554;2023-05-10T16:28:39;7.78;;;3.33;;
31087;SDS011;17745;55.914;37.554;2023-05-10T16:31:14;10.85;;;3.53;;
31087;SDS011;17745;55.914;37.554;2023-05-10T16:34:03;11.07;;;4.32;;
31087;SDS011;17745;55.914;37.554;2023-05-10T16:36:53;9.50;;;3.83;;
31087;SDS011;17745;55.914;37.554;2023-05-10T16:39:28;8.95;;;3.22;;
31087;SDS011;17745;55.914;37.554;2023-05-10T16:42:03;8.27;;;3.47;;
31087;SDS011;17745;55.914;37.554;2023-05-10T16:44:37;15.45;;;4.10;;
31087;SDS011;17745;55.914;37.554;2023-05-10T16:47:21;16.10;;;4.12;;
31087;SDS011;17745;55.914;37.554;2023-05-10T16:49:58;15.23;;;4.03;;
31087;SDS011;17745;55.914;37.554;2023-05-10T16:52:30;23.15;;;4.60;;
31087;SDS011;17745;55.914;37.554;2023-05-10T16:55:12;13.07;;;4.57;;
31087;SDS011;17745;55.914;37.554;2023-05-10T16:57:44;13.48;;;4.20;;
31087;SDS011;17745;55.914;37.554;2023-05-10T17:00:29;6.80;;;3.42;;
31087;SDS011;17745;55.914;37.554;2023-05-10T17:03:00;14.15;;;4.40;;
31087;SDS011;17745;55.914;37.554;2023-05-10T17:05:41;9.32;;;3.40;;
31087;SDS011;17745;55.914;37.554;2023-05-10T17:11:30;15.45;;;3.90;;
31087;SDS011;17745;55.914;37.554;2023-05-10T17:14:15;13.05;;;3.55;;
31087;SDS011;17745;55.914;37.554;2023-05-10T17:16:44;7.00;;;3.20;;
31087;SDS011;17745;55.914;37.554;2023-05-10T17:19:46;7.53;;;3.53;;
31087;SDS011;17745;55.914;37.554;2023-05-10T17:23:02;10.98;;;4.15;;
31087;SDS011;17745;55.914;37.554;2023-05-10T17:25:53;8.88;;;3.60;;
31087;SDS011;17745;55.914;37.554;2023-05-10T17:28:27;8.02;;;3.20;;
31087;SDS011;17745;55.914;37.554;2023-05-10T17:31:45;10.23;;;3.60;;
31087;SDS011;17745;55.914;37.554;2023-05-10T17:34:57;8.40;;;3.30;;
31087;SDS011;17745;55.914;37.554;2023-05-10T17:37:30;14.40;;;3.87;;
31087;SDS011;17745;55.914;37.554;2023-05-10T17:40:09;10.07;;;3.00;;
31087;SDS011;17745;55.914;37.554;2023-05-10T17:42:44;9.45;;;3.55;;
31087;SDS011;17745;55.914;37.554;2023-05-10T17:45:16;8.68;;;3.35;;
31087;SDS011;17745;55.914;37.554;2023-05-10T17:47:59;11.40;;;3.55;;
31087;SDS011;17745;55.914;37.554;2023-05-10T17:50:44;18.98;;;7.70;;
31087;SDS011;17745;55.914;37.554;2023-05-10T17:53:26;9.93;;;3.72;;
31087;SDS011;17745;55.914;37.554;2023-05-10T17:59:51;8.80;;;4.10;;
31087;SDS011;17745;55.914;37.554;2023-05-10T18:03:36;10.07;;;4.00;;
31087;SDS011;17745;55.914;37.554;2023-05-10T18:07:48;17.67;;;4.68;;
31087;SDS011;17745;55.914;37.554;2023-05-10T18:10:58;22.23;;;5.53;;
31087;SDS011;17745;55.914;37.554;2023-05-10T18:21:01;21.35;;;5.22;;
31087;SDS011;17745;55.914;37.554;2023-05-10T18:24:39;21.00;;;5.45;;
31087;SDS011;17745;55.914;37.554;2023-05-10T18:27:18;20.80;;;5.22;;
31087;SDS011;17745;55.914;37.554;2023-05-10T18:30:58;18.75;;;6.35;;
31087;SDS011;17745;55.914;37.554;2023-05-10T18:34:52;19.58;;;5.35;;
31087;SDS011;17745;55.914;37.554;2023-05-10T18:41:54;19.33;;;4.50;;
31087;SDS011;17745;55.914;37.554;2023-05-10T18:44:39;23.75;;;6.20;;
31087;SDS011;17745;55.914;37.554;2023-05-10T18:47:43;15.00;;;5.97;;
31087;SDS011;17745;55.914;37.554;2023-05-10T18:50:23;26.13;;;8.27;;
31087;SDS011;17745;55.914;37.554;2023-05-10T18:53:19;13.90;;;5.10;;
31087;SDS011;17745;55.914;37.554;2023-05-10T18:55:58;17.05;;;4.90;;
31087;SDS011;17745;55.914;37.554;2023-05-10T18:58:30;20.40;;;5.93;;
31087;SDS011;17745;55.914;37.554;2023-05-10T19:01:03;9.75;;;4.97;;
31087;SDS011;17745;55.914;37.554;2023-05-10T19:04:24;16.55;;;5.18;;